Time;durP1;ratioP1;P1;durP2;ratioP2;P2;SDS_P1;SDS_P2;PMS_P1;PMS_P2;Temp;Humidity;BMP_temperature;BMP_pressure;BME280_temperature;BME280_humidity;BME280_pressure;Samples;Min_cycle;Max_cycle;Signal;HPM_P1;HPM_P2
2022/12/08 00:00:37;;;;;;;24.83;14.83;;;3.30;99.90;4.60;96436.00;;;;5068818;28;20200;-68
2022/12/08 00:03:25;;;;;;;23.10;15.33;;;3.20;99.90;4.50;96444.00;;;;5069327;28;20565;-68
2022/12/08 00:09:35;;;;;;;30.47;15.33;;;3.20;99.90;4.50;96438.00;;;;5059355;28;20618;-68
2022/12/08 00:12:26;;;;;;;23.50;15.30;;;3.20;99.90;4.50;96442.00;;;;5069288;28;20841;-68
2022/12/08 00:15:15;;;;;;;24.57;13.60;;;3.20;99.90;4.60;96439.00;;;;5069381;28;20419;-68
2022/12/08 00:18:03;;;;;;;22.37;13.57;;;3.20;99.90;4.60;96436.00;;;;5069781;28;20203;-68
2022/12/08 00:20:55;;;;;;;25.27;13.63;;;3.20;99.90;4.20;96433.00;;;;5060238;28;20219;-67
2022/12/08 00:23:46;;;;;;;23.40;13.93;;;3.20;99.90;4.10;96427.00;;;;5070462;28;20220;-68
2022/12/08 00:26:34;;;;;;;25.83;15.13;;;3.20;99.90;3.90;96422.00;;;;5069881;28;20215;-68
2022/12/08 00:29:23;;;;;;;26.40;14.60;;;3.00;99.90;4.00;96420.00;;;;5068257;28;20214;-67
2022/12/08 00:32:12;;;;;;;28.67;15.07;;;3.10;99.90;4.20;96431.00;;;;5066433;28;20508;-68
2022/12/08 00:35:01;;;;;;;20.37;13.57;;;3.10;99.90;4.20;96423.00;;;;5068988;28;20196;-68
2022/12/08 00:37:49;;;;;;;21.87;14.80;;;3.00;99.90;4.30;96417.00;;;;5066443;28;20192;-68
2022/12/08 00:40:45;;;;;;;24.43;15.03;;;3.10;99.90;4.40;96425.00;;;;5069505;28;20207;-68
2022/12/08 00:43:34;;;;;;;23.47;13.87;;;3.10;99.90;4.40;96410.00;;;;5068984;28;20252;-68
2022/12/08 00:46:23;;;;;;;22.77;14.23;;;3.10;99.90;4.40;96410.00;;;;5069336;28;20204;-68
2022/12/08 00:49:12;;;;;;;33.67;14.60;;;3.10;99.90;4.40;96413.00;;;;5067885;28;20192;-67
2022/12/08 00:52:01;;;;;;;25.03;14.33;;;3.10;99.90;4.40;96418.00;;;;5069322;28;20687;-67
2022/12/08 00:54:50;;;;;;;34.77;15.13;;;3.10;99.90;4.30;96423.00;;;;5069405;28;20216;-68
2022/12/08 00:57:40;;;;;;;22.20;13.67;;;3.10;99.90;4.30;96413.00;;;;5075377;28;20204;-67
2022/12/08 01:00:28;;;;;;;24.20;14.80;;;3.40;99.90;4.30;96416.00;;;;5069700;28;20200;-67
2022/12/08 01:03:17;;;;;;;29.93;14.60;;;3.10;99.90;4.10;96419.00;;;;5068134;28;20695;-67
2022/12/08 01:06:08;;;;;;;28.50;17.20;;;3.10;99.90;4.10;96410.00;;;;5062016;28;20419;-67
2022/12/08 01:08:56;;;;;;;26.43;13.20;;;3.10;99.90;4.10;96415.00;;;;5066990;28;20211;-67
2022/12/08 01:11:46;;;;;;;24.83;14.13;;;3.10;99.90;4.20;96417.00;;;;5069336;28;20223;-67
2022/12/08 01:14:37;;;;;;;25.30;14.37;;;3.00;99.90;4.30;96424.00;;;;5068319;28;20230;-67
2022/12/08 01:17:25;;;;;;;24.00;12.83;;;3.00;99.90;4.20;96427.00;;;;5068837;28;20249;-68
2022/12/08 01:20:14;;;;;;;25.10;14.13;;;3.00;99.90;4.20;96434.00;;;;5069027;28;20223;-68
2022/12/08 01:23:03;;;;;;;22.77;13.77;;;3.00;99.90;4.10;96411.00;;;;5068405;28;20215;-68
2022/12/08 01:25:51;;;;;;;22.27;12.90;;;3.00;99.90;4.00;96420.00;;;;5067172;28;20207;-68
2022/12/08 01:28:41;;;;;;;24.10;13.50;;;3.00;99.90;4.00;96421.00;;;;5056405;28;20419;-68
2022/12/08 01:31:31;;;;;;;23.27;13.30;;;3.00;99.90;4.00;96411.00;;;;5069299;28;20215;-67
2022/12/08 01:34:19;;;;;;;24.00;13.43;;;3.00;99.90;4.20;96411.00;;;;5067253;28;20220;-67
2022/12/08 01:37:08;;;;;;;27.03;14.23;;;3.00;99.90;4.40;96412.00;;;;5065468;28;20562;-67
2022/12/08 01:39:57;;;;;;;19.60;13.40;;;3.00;99.90;4.40;96415.00;;;;5064610;28;20200;-68
2022/12/08 01:42:45;;;;;;;26.10;15.50;;;3.00;99.90;4.40;96410.00;;;;5069416;28;20208;-68
2022/12/08 01:45:34;;;;;;;31.30;15.87;;;3.10;99.90;4.50;96405.00;;;;5069939;28;20203;-68
2022/12/08 01:48:27;;;;;;;21.23;14.43;;;3.10;99.90;4.40;96403.00;;;;5067777;28;20430;-67
2022/12/08 01:51:16;;;;;;;28.93;13.57;;;3.10;99.90;4.40;96405.00;;;;5069064;28;20203;-68
2022/12/08 01:54:07;;;;;;;27.47;15.77;;;3.10;99.90;4.50;96399.00;;;;5068274;28;20277;-68
2022/12/08 01:57:02;;;;;;;24.80;15.27;;;3.10;99.90;4.50;96398.00;;;;5068125;28;20962;-67
2022/12/08 01:59:57;;;;;;;23.97;14.93;;;3.20;99.90;4.50;96393.00;;;;5068334;28;20196;-68
2022/12/08 02:02:53;;;;;;;28.93;14.13;;;3.20;99.90;4.60;96386.00;;;;5062436;28;20585;-68
2022/12/08 02:05:44;;;;;;;27.37;15.73;;;3.20;99.90;4.60;96373.00;;;;5067434;28;20207;-67
2022/12/08 02:08:34;;;;;;;29.73;14.07;;;3.20;99.90;4.60;96375.00;;;;5067175;28;20582;-68
2022/12/08 02:11:23;;;;;;;25.53;13.97;;;3.20;99.90;4.60;96386.00;;;;5069177;28;20698;-68
2022/12/08 02:14:14;;;;;;;25.40;15.23;;;3.30;99.90;4.70;96385.00;;;;5068757;28;20236;-68
2022/12/08 02:17:14;;;;;;;20.70;13.47;;;3.30;99.90;4.70;96380.00;;;;5068362;28;20212;-68
2022/12/08 02:20:31;;;;;;;21.93;13.67;;;3.30;99.90;4.60;96375.00;;;;5069410;28;20196;-67
2022/12/08 02:23:33;;;;;;;23.13;13.00;;;3.30;99.90;4.60;96361.00;;;;5069033;28;20897;-67
2022/12/08 02:27:10;;;;;;;23.53;13.30;;;3.20;99.90;4.60;96363.00;;;;5072508;28;20203;-67
2022/12/08 02:30:24;;;;;;;22.83;12.90;;;3.30;99.90;4.30;96355.00;;;;5072197;28;20641;-68
2022/12/08 02:34:06;;;;;;;24.03;14.53;;;3.20;99.90;4.30;96346.00;;;;5071595;28;20228;-68
2022/12/08 02:37:05;;;;;;;18.73;12.23;;;3.20;99.90;4.30;96355.00;;;;5069748;28;20203;-67
2022/12/08 02:40:06;;;;;;;24.20;13.80;;;3.20;99.90;4.40;96347.00;;;;5066539;28;20192;-67
2022/12/08 02:43:00;;;;;;;25.57;14.97;;;3.10;99.90;4.60;96345.00;;;;5071783;28;20276;-68
2022/12/08 02:45:54;;;;;;;22.23;14.63;;;3.20;99.90;4.50;96339.00;;;;5071425;28;20192;-67
2022/12/08 02:48:43;;;;;;;24.17;13.83;;;3.20;99.90;4.40;96348.00;;;;5071103;28;20200;-68
2022/12/08 02:51:32;;;;;;;23.60;13.20;;;3.10;99.90;4.40;96349.00;;;;5062757;28;20200;-68
2022/12/08 02:54:22;;;;;;;22.80;14.23;;;3.20;99.90;4.30;96345.00;;;;5070938;28;20216;-67
2022/12/08 02:57:26;;;;;;;27.67;13.97;;;3.10;99.90;4.30;96345.00;;;;5067206;28;20206;-68
2022/12/08 03:00:17;;;;;;;24.63;14.13;;;3.10;99.90;4.20;96342.00;;;;5071024;28;20203;-67
2022/12/08 03:03:14;;;;;;;23.80;12.80;;;3.10;99.90;4.30;96335.00;;;;5066556;28;20839;-67
2022/12/08 03:06:17;;;;;;;22.43;13.10;;;3.10;99.90;4.30;96334.00;;;;5069573;28;20199;-68
2022/12/08 03:09:14;;;;;;;20.90;13.50;;;3.10;99.90;4.30;96328.00;;;;5070838;28;20944;-67
2022/12/08 03:12:18;;;;;;;27.00;14.93;;;3.10;99.90;4.40;96339.00;;;;5067489;28;20204;-68
2022/12/08 03:15:12;;;;;;;19.47;12.50;;;3.10;99.90;4.40;96344.00;;;;5070743;28;20426;-68
2022/12/08 03:18:01;;;;;;;21.77;12.83;;;3.10;99.90;4.20;96320.00;;;;5065924;28;20211;-67
2022/12/08 03:20:51;;;;;;;23.47;13.57;;;3.10;99.90;4.20;96319.00;;;;5060323;28;20204;-67
2022/12/08 03:23:41;;;;;;;20.33;12.60;;;3.10;99.90;4.10;96315.00;;;;5072069;28;20228;-67
2022/12/08 03:26:36;;;;;;;21.30;13.23;;;3.00;99.90;4.20;96309.00;;;;5072338;28;20586;-67
2022/12/08 03:29:26;;;;;;;22.33;13.13;;;3.00;99.90;4.20;96305.00;;;;5068913;28;20204;-68
2022/12/08 03:32:26;;;;;;;24.43;14.10;;;3.00;99.90;4.20;96300.00;;;;5067808;28;20192;-68
2022/12/08 03:35:19;;;;;;;29.67;15.23;;;3.00;99.90;4.20;96304.00;;;;5068903;28;20815;-68
2022/12/08 03:38:12;;;;;;;29.37;13.73;;;3.00;99.90;4.30;96303.00;;;;5066079;28;20209;-68
2022/12/08 03:41:18;;;;;;;22.47;13.40;;;3.00;99.90;4.20;96300.00;;;;5067451;28;20422;-68
2022/12/08 03:44:07;;;;;;;21.87;14.53;;;3.00;99.90;4.10;96287.00;;;;5067722;28;20609;-67
2022/12/08 03:46:57;;;;;;;25.83;13.63;;;3.00;99.90;4.10;96283.00;;;;5065161;28;20426;-67
2022/12/08 03:49:46;;;;;;;23.43;14.83;;;3.00;99.90;4.10;96291.00;;;;5070587;28;20208;-68
2022/12/08 03:52:35;;;;;;;23.43;13.43;;;3.00;99.90;4.10;96290.00;;;;5070216;28;20470;-67
2022/12/08 03:55:23;;;;;;;23.00;13.27;;;3.00;99.90;4.10;96287.00;;;;5068413;28;20199;-68
2022/12/08 03:58:12;;;;;;;24.77;13.03;;;3.00;99.90;4.20;96278.00;;;;5069422;28;20433;-68
2022/12/08 04:01:01;;;;;;;28.43;14.03;;;3.00;99.90;4.20;96277.00;;;;5069078;28;20415;-67
2022/12/08 04:03:51;;;;;;;28.07;14.10;;;3.00;99.90;4.10;96273.00;;;;5064292;28;20439;-67
2022/12/08 04:06:40;;;;;;;28.93;14.10;;;3.00;99.90;4.10;96276.00;;;;5058400;28;20211;-67
2022/12/08 04:09:28;;;;;;;24.93;13.50;;;3.10;99.90;4.10;96276.00;;;;5069568;28;20426;-67
2022/12/08 04:12:17;;;;;;;22.27;12.87;;;2.90;99.90;4.40;96280.00;;;;5064052;28;20211;-67
2022/12/08 04:15:07;;;;;;;21.23;12.97;;;3.00;99.90;4.30;96271.00;;;;5070977;28;20200;-67
2022/12/08 04:17:56;;;;;;;21.00;12.97;;;3.00;99.90;4.30;96283.00;;;;5065387;28;20604;-67
2022/12/08 04:20:46;;;;;;;23.43;13.60;;;3.00;99.90;4.40;96268.00;;;;5066304;28;20204;-67
2022/12/08 04:23:35;;;;;;;21.07;11.93;;;3.00;99.90;4.30;96275.00;;;;5069914;28;20690;-67
2022/12/08 04:26:23;;;;;;;26.73;13.17;;;3.00;99.90;4.20;96276.00;;;;5070189;28;20426;-67
2022/12/08 04:29:12;;;;;;;24.23;12.83;;;3.00;99.90;4.40;96277.00;;;;5068576;28;20196;-67
2022/12/08 04:32:01;;;;;;;21.90;14.60;;;3.00;99.90;4.40;96269.00;;;;5069080;28;20203;-67
2022/12/08 04:34:49;;;;;;;20.53;12.87;;;3.00;99.90;4.50;96263.00;;;;5070561;28;20446;-67
2022/12/08 04:37:40;;;;;;;22.83;14.47;;;3.10;99.90;4.50;96274.00;;;;5064515;28;20422;-67
2022/12/08 04:40:28;;;;;;;26.57;15.47;;;3.00;99.90;4.40;96268.00;;;;5069138;28;20204;-67
2022/12/08 04:43:17;;;;;;;27.73;14.83;;;3.10;99.90;4.50;96269.00;;;;5069578;28;20285;-67
2022/12/08 04:46:07;;;;;;;28.17;16.57;;;3.10;99.90;4.50;96265.00;;;;5071669;28;20207;-68
2022/12/08 04:48:56;;;;;;;23.80;14.80;;;3.10;99.90;4.50;96264.00;;;;5068739;28;20429;-67
2022/12/08 04:51:45;;;;;;;29.77;16.63;;;3.20;99.90;4.50;96251.00;;;;5068942;28;20232;-68
2022/12/08 04:54:35;;;;;;;25.67;14.77;;;3.30;99.90;4.60;96256.00;;;;5069235;28;20477;-67
2022/12/08 04:57:24;;;;;;;31.77;16.17;;;3.20;99.90;4.60;96257.00;;;;5070134;28;20215;-67
2022/12/08 05:00:14;;;;;;;25.83;15.77;;;3.20;99.90;4.60;96252.00;;;;5069118;28;20222;-67
2022/12/08 05:03:03;;;;;;;30.67;16.00;;;3.20;99.90;4.60;96248.00;;;;5059259;28;20216;-68
2022/12/08 05:05:51;;;;;;;25.70;15.10;;;3.20;99.90;4.60;96251.00;;;;5069708;28;20203;-68
2022/12/08 05:08:40;;;;;;;29.40;15.60;;;3.20;99.90;4.60;96248.00;;;;5069815;28;20219;-67
2022/12/08 05:11:30;;;;;;;26.83;15.10;;;3.20;99.90;4.50;96243.00;;;;5069376;28;20204;-67
2022/12/08 05:14:19;;;;;;;27.07;15.67;;;3.30;99.90;4.40;96241.00;;;;5067606;28;20239;-68
2022/12/08 05:17:08;;;;;;;30.37;16.30;;;3.20;99.90;4.20;96243.00;;;;5067747;28;20223;-67
2022/12/08 05:19:57;;;;;;;22.27;12.97;;;3.20;99.90;4.10;96237.00;;;;5064504;28;20196;-68
2022/12/08 05:22:46;;;;;;;28.07;15.37;;;3.10;99.90;4.10;96238.00;;;;5068592;28;20683;-68
2022/12/08 05:25:34;;;;;;;26.80;13.23;;;3.10;99.90;4.20;96234.00;;;;5069525;28;20415;-67
2022/12/08 05:28:25;;;;;;;31.03;17.27;;;3.00;99.90;4.10;96239.00;;;;5069022;28;20223;-67
2022/12/08 05:31:30;;;;;;;31.40;16.03;;;3.00;99.90;4.00;96246.00;;;;5068876;28;20200;-67
2022/12/08 05:34:19;;;;;;;29.73;16.00;;;3.00;99.90;4.20;96232.00;;;;5067067;28;20465;-67
2022/12/08 05:37:07;;;;;;;30.80;15.67;;;3.00;99.90;4.30;96245.00;;;;5066409;28;20411;-67
2022/12/08 05:39:56;;;;;;;26.73;15.23;;;3.00;99.90;4.30;96235.00;;;;5063033;28;20210;-68
2022/12/08 05:42:45;;;;;;;25.90;16.33;;;3.00;99.90;4.40;96222.00;;;;5069776;28;20222;-67
2022/12/08 05:45:35;;;;;;;29.73;16.60;;;3.00;99.90;4.30;96235.00;;;;5068789;28;20204;-68
2022/12/08 05:48:24;;;;;;;25.73;16.13;;;3.00;99.90;4.20;96240.00;;;;5064769;28;20671;-68
2022/12/08 05:51:18;;;;;;;27.43;15.17;;;3.00;99.90;4.20;96248.00;;;;5068507;28;20207;-67
2022/12/08 05:54:07;;;;;;;28.97;15.23;;;3.10;99.90;4.20;96241.00;;;;5069263;28;20592;-68
2022/12/08 05:56:55;;;;;;;33.07;16.20;;;3.00;99.90;4.20;96240.00;;;;5068519;28;20204;-67
2022/12/08 05:59:44;;;;;;;26.63;15.57;;;3.00;99.90;4.20;96240.00;;;;5070060;28;20415;-68
2022/12/08 06:02:34;;;;;;;28.30;16.33;;;3.00;99.90;4.30;96238.00;;;;5072687;28;20200;-68
2022/12/08 06:05:23;;;;;;;29.77;16.27;;;3.10;99.90;4.30;96230.00;;;;5071740;28;20195;-68
2022/12/08 06:08:13;;;;;;;27.40;14.83;;;3.00;99.90;4.40;96229.00;;;;5071097;28;21000;-67
2022/12/08 06:11:02;;;;;;;25.23;15.43;;;3.10;99.90;4.40;96219.00;;;;5071037;28;20204;-67
2022/12/08 06:13:51;;;;;;;22.93;14.43;;;3.10;99.90;4.40;96236.00;;;;5073147;28;20228;-67
2022/12/08 06:16:40;;;;;;;34.90;16.83;;;3.10;99.90;4.40;96231.00;;;;5072239;28;20445;-68
2022/12/08 06:19:30;;;;;;;27.27;15.57;;;3.10;99.90;4.50;96218.00;;;;5071798;28;20211;-68
2022/12/08 06:22:19;;;;;;;30.57;16.67;;;3.10;99.90;4.50;96209.00;;;;5072479;28;20422;-68
2022/12/08 06:25:09;;;;;;;22.87;12.97;;;3.10;99.90;4.50;96216.00;;;;5071506;28;20204;-68
2022/12/08 06:27:57;;;;;;;26.73;14.90;;;3.10;99.90;4.40;96207.00;;;;5071678;28;20196;-67
2022/12/08 06:30:46;;;;;;;25.03;14.93;;;3.10;99.90;4.50;96209.00;;;;5071961;28;20593;-67
2022/12/08 06:33:35;;;;;;;25.23;15.30;;;3.10;99.90;4.50;96208.00;;;;5072801;28;20212;-68
2022/12/08 06:36:27;;;;;;;26.20;15.53;;;3.30;99.90;4.50;96205.00;;;;5071679;28;20664;-67
2022/12/08 06:39:16;;;;;;;27.27;14.13;;;3.10;99.90;4.60;96208.00;;;;5071874;28;20675;-68
2022/12/08 06:45:12;;;;;;;23.37;14.27;;;3.20;99.90;4.50;96227.00;;;;5071593;28;20199;-68
2022/12/08 06:48:02;;;;;;;28.67;15.57;;;3.20;99.90;4.60;96218.00;;;;5065253;28;20216;-67
2022/12/08 06:50:51;;;;;;;32.37;17.27;;;3.20;99.90;4.50;96232.00;;;;5068930;28;20230;-68
2022/12/08 06:53:42;;;;;;;31.13;18.03;;;3.20;99.90;4.50;96231.00;;;;5070678;28;20231;-67
2022/12/08 06:56:31;;;;;;;31.03;18.37;;;3.20;99.90;4.50;96219.00;;;;5066835;28;20196;-67
2022/12/08 06:59:19;;;;;;;27.17;16.00;;;3.20;99.90;4.50;96234.00;;;;5070396;28;20563;-67
2022/12/08 07:02:09;;;;;;;29.60;16.07;;;3.20;99.90;4.40;96227.00;;;;5068132;28;20197;-68
2022/12/08 07:04:58;;;;;;;24.50;14.70;;;3.20;99.90;4.50;96219.00;;;;5070843;28;20212;-68
2022/12/08 07:07:46;;;;;;;26.13;15.43;;;3.20;99.90;4.50;96220.00;;;;5070598;28;20196;-68
2022/12/08 07:10:37;;;;;;;27.63;14.40;;;3.20;99.90;4.60;96203.00;;;;5070955;28;20599;-68
2022/12/08 07:13:26;;;;;;;28.00;15.80;;;3.20;99.90;4.60;96210.00;;;;5069090;28;20227;-67
2022/12/08 07:16:15;;;;;;;29.57;16.50;;;3.20;99.90;4.70;96212.00;;;;5065844;28;20211;-67
2022/12/08 07:19:03;;;;;;;28.90;17.40;;;3.20;99.90;4.70;96213.00;;;;5066646;28;20584;-67
2022/12/08 07:21:52;;;;;;;29.97;15.97;;;3.30;99.90;4.70;96213.00;;;;5069382;28;20204;-68
2022/12/08 07:24:41;;;;;;;25.10;14.43;;;3.30;99.90;4.60;96214.00;;;;5066495;28;20223;-68
2022/12/08 07:27:31;;;;;;;32.87;16.30;;;3.30;99.90;4.70;96213.00;;;;5067365;28;20207;-68
2022/12/08 07:30:20;;;;;;;25.60;15.53;;;3.30;99.90;4.80;96213.00;;;;5065452;28;20196;-67
2022/12/08 07:33:08;;;;;;;26.47;15.73;;;3.30;99.90;4.80;96212.00;;;;5070169;28;20215;-68
2022/12/08 07:35:59;;;;;;;26.83;14.03;;;3.40;99.90;4.80;96217.00;;;;5063259;28;20220;-68
2022/12/08 07:38:49;;;;;;;25.30;14.43;;;4.50;99.90;4.80;96227.00;;;;5068619;28;20196;-67
2022/12/08 07:41:37;;;;;;;28.30;15.97;;;3.40;99.90;4.90;96213.00;;;;5069861;28;20675;-68
2022/12/08 07:44:27;;;;;;;29.97;16.70;;;3.40;99.90;4.80;96222.00;;;;5070326;28;20232;-68
2022/12/08 07:47:16;;;;;;;28.07;14.80;;;3.40;99.90;4.80;96211.00;;;;5069777;28;20207;-68
2022/12/08 07:50:07;;;;;;;25.80;14.63;;;3.50;99.90;4.80;96216.00;;;;5069317;28;20207;-67
2022/12/08 07:52:55;;;;;;;25.03;13.97;;;3.40;99.90;4.60;96211.00;;;;5066299;28;21001;-68
2022/12/08 07:55:45;;;;;;;31.13;14.93;;;3.50;99.90;4.80;96222.00;;;;5068513;28;20238;-68
2022/12/08 07:58:34;;;;;;;31.43;15.90;;;3.40;99.90;4.80;96227.00;;;;5068048;28;20192;-68
2022/12/08 08:01:27;;;;;;;28.63;16.53;;;3.40;99.90;4.70;96221.00;;;;5064523;28;20200;-68
2022/12/08 08:04:16;;;;;;;26.97;14.33;;;3.50;99.90;4.70;96220.00;;;;5063786;28;20235;-69
2022/12/08 08:07:05;;;;;;;27.00;14.30;;;3.40;99.90;4.70;96229.00;;;;5069229;28;20207;-68
2022/12/08 08:09:54;;;;;;;25.10;14.43;;;3.40;99.90;4.70;96220.00;;;;5068010;28;20203;-68
2022/12/08 08:12:44;;;;;;;29.23;15.67;;;3.40;99.90;4.70;96223.00;;;;5069753;28;20192;-68
2022/12/08 08:15:33;;;;;;;25.17;15.27;;;3.40;99.90;4.80;96212.00;;;;5064473;28;20216;-68
2022/12/08 08:18:23;;;;;;;35.30;15.37;;;3.40;99.90;4.90;96197.00;;;;5070923;28;20270;-68
2022/12/08 08:21:12;;;;;;;27.73;15.07;;;3.50;99.90;4.90;96192.00;;;;5067618;28;20254;-68
2022/12/08 08:24:22;;;;;;;23.30;14.10;;;3.50;99.90;4.80;96192.00;;;;5069594;28;20228;-68
2022/12/08 08:27:11;;;;;;;25.47;14.50;;;3.50;99.90;4.90;96201.00;;;;5063705;28;20196;-68
2022/12/08 08:30:00;;;;;;;25.47;14.93;;;3.60;99.90;5.00;96203.00;;;;5064144;28;20586;-68
2022/12/08 08:32:49;;;;;;;23.27;14.97;;;3.50;99.90;4.90;96201.00;;;;5069707;28;20194;-68
2022/12/08 08:35:41;;;;;;;27.00;14.63;;;3.60;99.90;5.10;96204.00;;;;5076438;28;20228;-67
2022/12/08 08:38:30;;;;;;;27.67;14.77;;;3.60;99.90;5.10;96200.00;;;;5057369;28;20188;-68
2022/12/08 08:41:19;;;;;;;25.77;14.27;;;3.60;99.90;5.00;96201.00;;;;5068285;28;20283;-68
2022/12/08 08:44:07;;;;;;;20.20;13.37;;;3.60;99.90;5.10;96207.00;;;;5064990;28;20220;-68
2022/12/08 08:46:56;;;;;;;19.10;13.37;;;3.60;99.90;5.10;96213.00;;;;5066767;28;20216;-68
2022/12/08 08:49:45;;;;;;;22.33;13.90;;;3.70;99.90;5.00;96220.00;;;;5067578;28;20192;-68
2022/12/08 08:52:35;;;;;;;26.00;15.10;;;3.70;99.90;5.00;96209.00;;;;5067054;28;20901;-68
2022/12/08 08:55:24;;;;;;;29.63;15.00;;;3.70;99.90;5.10;96208.00;;;;5067169;28;20219;-68
2022/12/08 08:58:13;;;;;;;26.60;16.30;;;3.70;99.90;5.20;96206.00;;;;5066439;28;20204;-67
2022/12/08 09:01:01;;;;;;;33.20;17.67;;;3.70;99.90;5.20;96200.00;;;;5065002;28;20207;-68
2022/12/08 09:03:51;;;;;;;28.20;14.63;;;3.80;99.90;5.30;96194.00;;;;5068833;28;20223;-68
2022/12/08 09:06:41;;;;;;;26.90;13.50;;;3.80;99.90;5.50;96199.00;;;;5065139;28;20203;-68
2022/12/08 09:09:31;;;;;;;25.40;14.03;;;3.90;99.90;5.50;96201.00;;;;5065780;28;20211;-68
2022/12/08 09:12:20;;;;;;;24.33;13.17;;;3.90;99.90;5.60;96187.00;;;;5066697;28;20203;-68
2022/12/08 09:15:09;;;;;;;22.13;15.17;;;4.00;99.90;5.50;96194.00;;;;5067179;28;20619;-68
2022/12/08 09:17:58;;;;;;;27.07;14.43;;;4.00;99.90;5.30;96196.00;;;;5064267;28;20211;-69
2022/12/08 09:20:47;;;;;;;30.97;16.23;;;4.00;99.90;5.30;96194.00;;;;5069213;28;20207;-68
2022/12/08 09:23:36;;;;;;;23.20;13.97;;;4.00;99.90;5.30;96187.00;;;;5068317;28;20224;-68
2022/12/08 09:26:27;;;;;;;24.47;13.33;;;4.00;99.90;5.40;96188.00;;;;5067888;28;20204;-68
2022/12/08 09:29:16;;;;;;;31.80;15.20;;;3.90;99.90;5.30;96177.00;;;;5067238;28;20207;-68
2022/12/08 09:32:05;;;;;;;28.83;14.53;;;4.00;99.90;5.30;96175.00;;;;5063105;28;20211;-68
2022/12/08 09:34:54;;;;;;;24.33;13.63;;;3.90;99.90;5.30;96166.00;;;;5077945;22;20239;-84
2022/12/08 09:37:43;;;;;;;25.20;15.07;;;3.90;99.90;5.30;96173.00;;;;5055997;28;20849;-85
2022/12/08 09:40:37;;;;;;;27.93;14.77;;;3.80;99.90;5.40;96167.00;;;;5070485;28;20572;-85
2022/12/08 09:43:51;;;;;;;25.80;14.40;;;3.90;99.90;5.50;96171.00;;;;5066021;28;20204;-85
2022/12/08 09:46:40;;;;;;;24.97;15.07;;;3.90;99.90;5.60;96181.00;;;;5062510;28;20208;-85
2022/12/08 09:49:39;;;;;;;27.93;16.27;;;4.00;99.90;5.60;96176.00;;;;5063894;28;20782;-85
2022/12/08 09:52:32;;;;;;;22.87;13.80;;;4.10;99.90;5.60;96174.00;;;;5068274;28;20204;-84
2022/12/08 09:55:32;;;;;;;23.30;13.90;;;4.10;99.90;5.60;96166.00;;;;5064640;28;20238;-86
2022/12/08 09:58:27;;;;;;;26.63;15.97;;;4.70;99.90;5.60;96169.00;;;;5060012;28;20204;-84
2022/12/08 10:01:19;;;;;;;27.13;16.30;;;4.10;99.90;5.70;96165.00;;;;5063436;28;20226;-83
2022/12/08 10:04:23;;;;;;;29.73;15.17;;;4.30;99.90;5.70;96169.00;;;;5069231;28;20220;-83
2022/12/08 10:07:20;;;;;;;29.00;15.57;;;4.40;99.90;5.60;96168.00;;;;5054929;28;20212;-84
2022/12/08 10:10:25;;;;;;;28.37;15.33;;;4.20;99.90;5.70;96181.00;;;;5058167;28;20213;-84
2022/12/08 10:13:22;;;;;;;27.97;17.13;;;5.00;99.90;5.70;96176.00;;;;5066653;28;20211;-84
2022/12/08 10:16:22;;;;;;;25.83;15.37;;;4.20;99.90;5.50;96163.00;;;;5055993;28;20707;-84
2022/12/08 10:19:20;;;;;;;29.63;16.07;;;4.20;99.90;5.70;96156.00;;;;5059196;28;20196;-86
2022/12/08 10:22:17;;;;;;;29.57;14.27;;;4.30;99.90;5.60;96149.00;;;;5069587;28;20262;-84
2022/12/08 10:25:17;;;;;;;24.97;15.17;;;4.20;99.90;5.70;96149.00;;;;5063188;28;20228;-84
2022/12/08 10:28:05;;;;;;;22.43;14.63;;;4.20;99.90;5.80;96143.00;;;;5062474;28;20208;-84
2022/12/08 10:30:54;;;;;;;23.67;13.63;;;4.30;99.90;5.80;96132.00;;;;5058771;28;20601;-84
2022/12/08 10:33:46;;;;;;;26.70;15.40;;;4.30;99.90;5.90;96128.00;;;;5057658;28;20216;-84
2022/12/08 10:36:54;;;;;;;22.53;13.70;;;4.40;99.90;6.10;96119.00;;;;5060851;28;20228;-84
2022/12/08 10:39:44;;;;;;;29.07;15.27;;;4.40;99.90;6.10;96124.00;;;;5064548;28;20205;-84
2022/12/08 10:42:38;;;;;;;22.70;13.53;;;4.50;99.90;6.20;96107.00;;;;5060250;28;20558;-85
2022/12/08 10:45:30;;;;;;;21.87;13.67;;;4.50;99.90;6.30;96104.00;;;;5059540;28;20224;-85
2022/12/08 10:48:22;;;;;;;22.17;12.43;;;4.60;99.90;6.10;96101.00;;;;5060540;28;20208;-85
2022/12/08 10:51:25;;;;;;;21.17;13.47;;;4.70;99.90;5.90;96090.00;;;;5065194;28;20205;-85
2022/12/08 10:54:28;;;;;;;19.37;12.33;;;4.60;99.90;6.00;96083.00;;;;5064564;28;20228;-85
2022/12/08 10:57:24;;;;;;;24.80;13.13;;;4.60;99.90;6.20;96080.00;;;;5053303;28;20228;-83
2022/12/08 11:00:15;;;;;;;20.93;12.60;;;4.70;99.90;6.40;96068.00;;;;5056390;28;20197;-84
2022/12/08 11:03:05;;;;;;;19.13;11.97;;;4.70;99.90;6.40;96071.00;;;;5061034;28;20216;-84
2022/12/08 11:05:58;;;;;;;27.07;14.83;;;4.80;99.90;6.40;96057.00;;;;5062379;28;20220;-84
2022/12/08 11:08:55;;;;;;;25.23;13.53;;;4.80;99.90;6.60;96056.00;;;;5052363;28;20212;-85
2022/12/08 11:11:48;;;;;;;20.80;12.13;;;5.00;99.90;6.20;96056.00;;;;5053281;28;20900;-84
2022/12/08 11:14:50;;;;;;;20.87;13.10;;;5.00;99.90;6.30;96061.00;;;;5050942;28;20217;-84
2022/12/08 11:17:39;;;;;;;21.57;12.83;;;4.90;99.90;6.30;96060.00;;;;5053542;28;20224;-85
2022/12/08 11:20:28;;;;;;;18.73;12.50;;;4.80;99.90;6.50;96059.00;;;;5054490;28;20197;-85
2022/12/08 11:23:22;;;;;;;25.00;14.33;;;4.90;99.90;6.40;96064.00;;;;5053905;28;20193;-85
2022/12/08 11:26:23;;;;;;;29.23;16.60;;;4.90;99.90;6.50;96057.00;;;;5054918;28;20223;-84
2022/12/08 11:29:13;;;;;;;24.00;15.57;;;4.90;99.90;6.50;96048.00;;;;5052543;28;20212;-85
2022/12/08 11:32:06;;;;;;;20.63;14.73;;;5.00;99.90;6.40;96056.00;;;;5050654;28;20213;-84
2022/12/08 11:35:00;;;;;;;19.47;10.77;;;5.00;99.90;6.40;96046.00;;;;5053649;28;20240;-84
2022/12/08 11:37:49;;;;;;;21.50;11.43;;;5.00;99.90;6.40;96047.00;;;;5053692;28;20239;-85
2022/12/08 11:40:41;;;;;;;18.33;11.63;;;5.00;99.90;6.40;96049.00;;;;5054876;28;20212;-84
2022/12/08 11:43:42;;;;;;;19.90;11.87;;;5.00;99.90;6.50;96041.00;;;;5053723;28;20204;-85
2022/12/08 11:46:38;;;;;;;17.67;11.37;;;5.00;99.90;6.40;96050.00;;;;5052107;28;20211;-84
2022/12/08 11:49:36;;;;;;;19.20;11.30;;;5.00;99.90;6.40;96037.00;;;;5049240;28;20200;-85
2022/12/08 11:52:29;;;;;;;17.17;10.53;;;4.90;99.90;6.40;96039.00;;;;5044852;28;20205;-85
2022/12/08 11:55:32;;;;;;;22.60;12.43;;;4.90;99.90;6.40;96031.00;;;;5053833;28;20646;-84
2022/12/08 11:58:28;;;;;;;21.50;12.47;;;4.90;99.90;6.50;96023.00;;;;5054175;28;20207;-84
2022/12/08 12:01:22;;;;;;;21.93;14.60;;;5.00;99.90;6.60;96029.00;;;;5055387;28;20200;-85
2022/12/08 12:04:23;;;;;;;23.57;13.03;;;5.00;99.90;6.90;96015.00;;;;5053387;28;20330;-85
2022/12/08 12:07:55;;;;;;;22.17;13.20;;;5.10;99.90;7.10;96018.00;;;;5051262;28;20207;-84
2022/12/08 12:11:00;;;;;;;18.67;12.70;;;5.20;99.90;6.90;96016.00;;;;5059360;28;20196;-86
2022/12/08 12:14:00;;;;;;;18.80;11.30;;;5.30;99.90;6.80;96011.00;;;;5051981;28;20204;-85
2022/12/08 12:17:02;;;;;;;21.63;12.87;;;5.40;99.90;6.90;96016.00;;;;5057040;28;20235;-85
2022/12/08 12:19:53;;;;;;;22.87;13.87;;;5.40;99.90;6.50;96005.00;;;;5059245;28;20242;-85
2022/12/08 12:22:45;;;;;;;24.93;14.57;;;5.30;99.90;6.80;96001.00;;;;5046093;28;20207;-84
2022/12/08 12:25:36;;;;;;;20.83;13.80;;;5.30;99.90;6.80;95995.00;;;;5056475;28;20221;-83
2022/12/08 12:28:28;;;;;;;24.53;13.80;;;5.30;99.90;6.80;96009.00;;;;5060509;28;20197;-84
2022/12/08 12:31:22;;;;;;;21.53;13.70;;;5.30;99.90;6.80;95994.00;;;;5063875;28;20192;-83
2022/12/08 12:34:17;;;;;;;26.80;15.27;;;5.30;99.90;6.70;95991.00;;;;5056230;28;20266;-83
2022/12/08 12:37:10;;;;;;;23.83;15.20;;;5.30;99.90;6.70;95993.00;;;;5051497;28;20310;-83
2022/12/08 12:40:04;;;;;;;28.30;17.10;;;5.30;99.90;6.70;95988.00;;;;5055112;28;20235;-85
2022/12/08 12:43:24;;;;;;;24.60;14.07;;;5.30;99.90;6.40;95991.00;;;;5056159;28;20204;-84
2022/12/08 12:46:40;;;;;;;24.20;14.23;;;5.20;99.90;6.20;95977.00;;;;5053297;28;20197;-84
2022/12/08 12:49:51;;;;;;;23.80;14.70;;;5.10;99.90;6.30;95977.00;;;;5055188;28;20227;-84
2022/12/08 12:52:42;;;;;;;20.60;13.37;;;5.00;99.90;6.00;95961.00;;;;5056293;28;20212;-83